ENHV/HVG METAR and TAF weather

Enter ICAO airport designator
Station Type Date Time Source
ENHV METAR 2021/05/14 07:50 UTC NOAA

ENHV 140750Z 04012KT 9999 BKN038 02/M03 Q1026


Station Type Date Time Source
ENHV Decoded METAR 2021/05/14 07:50 UTC NOAA

Honningsvag / Valan, Norway (ENHV) 71-01N 025-59E 14M
May 14, 2021 - 03:50 AM EDT / 2021.05.14 0750 UTC
Wind: from the NE (040 degrees) at 14 MPH (12 KT):0
Visibility: greater than 7 mile(s):0
Sky conditions: mostly cloudy
Temperature: 35 F (2 C)
Windchill: 26 F (-3 C):1
Dew Point: 26 F (-3 C)
Relative Humidity: 69%
Pressure (altimeter): 30.30 in. Hg (1026 hPa)
ob: ENHV 140750Z 04012KT 9999 BKN038 02/M03 Q1026
cycle: 8

Station Type Date Time Source
ENHV TAF UTC NOAA

Error!

Example: see airport list